CheckWX is a tool to help pilots better visualize weather data.  It is not intended as a substitute for an official pre-flight weather briefing.

13:05:08 UTC

LTBI TAF
Eskişehir Air Base Airport
Turkey
TAF LTBI 241040Z 2412/2421 32010KT 9999 SCT035 TEMPO 2412/2416 32015G25KT -TSRA FEW030CB BKN035 BECMG 2418/2420 26006KT

May-24@
12:00 UTC

May-24 @ 12:00 UTC

May-24@
18:00 UTC

May-24 @ 18:00 UTC

TAF LTBI 241040Z 2412/2421 32010KT 9999 SCT035
Wind
  • 320° at 10 KTS
Cloud Levels
  • Scattered at 3,500' AGL

May-24@
12:00 UTC

May-24 @ 12:00 UTC

May-24@
16:00 UTC

May-24 @ 16:00 UTC

TEMPO 2412/2416 32015G25KT -TSRA FEW030CB BKN035

Temporary

Temporary Changes expected for less than half the time period

Wind
  • 320° at 15 KTS
  • {Gusting to 25 KTS
Conditions
Light Thunderstorm, Light Rain
Cloud Levels
  • Few at 3,000' AGL
  • Broken at 3,500' AGL

May-24@
18:00 UTC

May-24 @ 18:00 UTC

May-24@
21:00 UTC

May-24 @ 21:00 UTC

BECMG 2418/2420 26006KT

Becoming

Becoming Conditions expected by Fri, May 24, 2019 @ 20:00 UTC

Wind
  • 260° at 6 KTS
Cloud Levels
  • Scattered at 3,500' AGL